Time;durP1;ratioP1;P1;durP2;ratioP2;P2;SDS_P1;SDS_P2;PMS_P1;PMS_P2;Temp;Humidity;BMP_temperature;BMP_pressure;BME280_temperature;BME280_humidity;BME280_pressure;Samples;Min_cycle;Max_cycle;Signal;HPM_P1;HPM_P2
2022/04/27 00:02:37;;;;;;;9.00;4.82;;;;;;;11.53;47.53;97946.78;10012651;29;20405;-78
2022/04/27 00:07:59;;;;;;;8.02;5.15;;;;;;;11.46;48.01;97956.81;9976707;29;20417;-78
2022/04/27 00:13:21;;;;;;;7.18;5.38;;;;;;;11.44;47.71;97948.31;9987286;29;20049;-78
2022/04/27 00:18:41;;;;;;;6.82;5.13;;;;;;;11.42;47.88;97950.25;9979925;29;20050;-78
2022/04/27 00:24:02;;;;;;;7.30;5.35;;;;;;;11.36;48.24;97947.03;9996910;29;20046;-78
2022/04/27 00:29:23;;;;;;;9.00;5.47;;;;;;;11.40;48.30;97961.28;10013090;29;20061;-77
2022/04/27 00:34:44;;;;;;;9.57;5.75;;;;;;;11.37;48.38;97954.06;9979258;29;20077;-78
2022/04/27 00:40:05;;;;;;;6.68;5.10;;;;;;;11.36;48.72;97952.63;9994210;29;20046;-77
2022/04/27 00:45:26;;;;;;;8.43;5.50;;;;;;;11.35;48.83;97959.53;9979675;29;20050;-78
2022/04/27 00:50:47;;;;;;;8.10;5.65;;;;;;;11.29;49.15;97961.91;10005134;29;20501;-78
2022/04/27 00:56:08;;;;;;;7.85;5.68;;;;;;;11.28;48.70;97963.97;9964309;29;20053;-78
2022/04/27 01:01:35;;;;;;;9.52;6.25;;;;;;;11.21;49.51;97964.91;10001141;29;20042;-78
2022/04/27 01:06:56;;;;;;;8.60;5.82;;;;;;;11.16;49.33;97974.31;9965015;29;20046;-78
2022/04/27 01:12:18;;;;;;;10.57;6.13;;;;;;;11.11;49.40;97967.72;10010808;29;20125;-78
2022/04/27 01:17:52;;;;;;;8.82;5.90;;;;;;;11.04;49.93;97979.81;10023406;29;20050;-78
2022/04/27 01:23:14;;;;;;;10.07;7.10;;;;;;;11.00;50.55;97987.91;10023717;29;20057;-78
2022/04/27 01:28:36;;;;;;;10.55;7.28;;;;;;;10.92;50.52;97986.63;9984526;29;20066;-78
2022/04/27 01:33:57;;;;;;;9.93;7.13;;;;;;;10.85;51.67;97991.78;10022281;29;20053;-78
2022/04/27 01:39:18;;;;;;;9.55;7.43;;;;;;;10.73;51.12;97985.34;9996858;29;20049;-78
2022/04/27 01:44:39;;;;;;;10.32;7.50;;;;;;;10.66;51.53;97994.59;10021869;29;20477;-77
2022/04/27 01:50:00;;;;;;;10.45;7.75;;;;;;;10.61;51.80;97995.63;10009058;29;20046;-77
2022/04/27 01:55:24;;;;;;;10.10;7.70;;;;;;;10.48;53.08;97999.59;10008905;29;20058;-78
2022/04/27 02:00:48;;;;;;;10.38;7.57;;;;;;;10.38;52.68;98010.03;10008679;29;20283;-78
2022/04/27 02:06:10;;;;;;;12.65;8.02;;;;;;;10.22;52.88;98009.59;10021026;29;20103;-78
2022/04/27 02:11:31;;;;;;;12.88;7.63;;;;;;;10.08;53.18;98010.59;10008484;29;20053;-77
2022/04/27 02:16:57;;;;;;;11.50;7.88;;;;;;;9.92;53.51;98015.69;9996259;29;20319;-77
2022/04/27 02:22:18;;;;;;;9.93;7.57;;;;;;;9.81;54.00;98007.91;10007160;29;20482;-77
2022/04/27 02:27:39;;;;;;;11.07;8.05;;;;;;;9.70;54.34;98020.34;10020493;29;20050;-77
2022/04/27 02:33:02;;;;;;;12.50;8.02;;;;;;;9.59;54.77;98027.22;10007415;29;20061;-78
2022/04/27 02:38:24;;;;;;;10.90;8.18;;;;;;;9.54;54.67;98027.50;10007871;29;20050;-77
2022/04/27 02:43:46;;;;;;;11.38;7.63;;;;;;;9.48;55.66;98029.84;9994909;29;20053;-77
2022/04/27 02:54:50;;;;;;;10.43;7.72;;;;;;;9.36;56.09;98046.34;10020345;29;20065;-78
2022/04/27 03:00:11;;;;;;;11.20;7.95;;;;;;;9.31;56.50;98042.50;9994952;29;20497;-78
2022/04/27 03:05:33;;;;;;;11.57;6.85;;;;;;;9.23;56.59;98047.44;10006928;29;20435;-77
2022/04/27 03:10:53;;;;;;;10.98;8.02;;;;;;;9.19;57.14;98052.72;10008589;29;20038;-78
2022/04/27 03:16:21;;;;;;;11.88;8.02;;;;;;;9.12;56.87;98059.13;10008295;29;20689;-78
2022/04/27 03:21:42;;;;;;;14.80;8.23;;;;;;;9.12;56.82;98054.28;10009908;29;20075;-78
2022/04/27 03:27:04;;;;;;;10.77;7.22;;;;;;;9.09;57.23;98068.66;10008424;29;20170;-78
2022/04/27 03:32:25;;;;;;;11.80;7.30;;;;;;;8.99;57.17;98062.28;10021261;29;20053;-78
2022/04/27 03:37:49;;;;;;;12.10;7.90;;;;;;;8.91;57.15;98070.72;10014345;29;20505;-78
2022/04/27 03:43:11;;;;;;;10.95;7.30;;;;;;;8.93;57.26;98070.16;10027499;29;20102;-78
2022/04/27 03:48:32;;;;;;;10.98;7.38;;;;;;;8.87;57.56;98085.06;10001651;29;20057;-78
2022/04/27 03:53:53;;;;;;;10.05;7.60;;;;;;;8.82;57.58;98091.63;10026746;29;20045;-78
2022/04/27 03:59:15;;;;;;;10.88;7.55;;;;;;;8.77;58.06;98095.38;10013937;29;20115;-78
2022/04/27 04:04:36;;;;;;;11.70;7.47;;;;;;;8.86;57.79;98097.50;10026555;29;20050;-77
2022/04/27 04:09:58;;;;;;;11.15;7.28;;;;;;;8.91;57.76;98106.19;10001361;29;20406;-78
2022/04/27 04:15:20;;;;;;;8.18;6.68;;;;;;;9.00;57.68;98119.44;10026639;29;20490;-77
2022/04/27 04:20:52;;;;;;;8.73;6.28;;;;;;;9.12;57.77;98128.75;10013056;29;20054;-77
2022/04/27 04:31:59;;;;;;;9.80;6.97;;;;;;;9.33;57.71;98131.81;10015412;29;20064;-78
2022/04/27 04:37:40;;;;;;;9.77;7.13;;;;;;;9.49;57.70;98142.75;10002026;29;20522;-77
2022/04/27 04:43:01;;;;;;;12.63;7.28;;;;;;;9.67;57.59;98144.19;10013112;29;20553;-78
2022/04/27 04:48:22;;;;;;;9.95;7.15;;;;;;;9.97;57.24;98154.88;10025489;29;20050;-78
2022/04/27 04:54:21;;;;;;;12.73;6.90;;;;;;;10.23;56.79;98155.41;10018681;29;20121;-78
2022/04/27 05:00:02;;;;;;;11.02;6.90;;;;;;;10.75;56.20;98152.28;10015026;29;20046;-78
2022/04/27 05:05:42;;;;;;;8.82;6.20;;;;;;;11.27;55.89;98177.69;10025009;29;20106;-78
2022/04/27 05:11:35;;;;;;;8.68;6.03;;;;;;;11.95;54.56;98186.66;9985797;29;20413;-77
2022/04/27 05:17:16;;;;;;;9.20;6.47;;;;;;;12.67;53.32;98180.28;10002865;29;20057;-78
2022/04/27 05:22:59;;;;;;;9.40;6.47;;;;;;;14.58;52.30;98197.88;10017878;29;20058;-80
2022/04/27 05:34:52;;;;;;;8.05;5.65;;;;;;;28.24;33.69;98205.06;10009392;29;20054;-82
2022/04/27 05:40:20;;;;;;;6.20;5.47;;;;;;;31.80;29.55;98218.03;10007777;29;20478;-81
2022/04/27 05:45:55;;;;;;;5.25;4.53;;;;;;;34.54;25.86;98229.88;10008235;29;20038;-82
2022/04/27 05:51:50;;;;;;;5.55;4.45;;;;;;;36.01;18.15;98233.03;10005319;29;20565;-82
2022/04/27 05:57:19;;;;;;;7.00;4.95;;;;;;;38.31;19.24;98249.88;9996656;29;20065;-82
2022/04/27 06:03:07;;;;;;;5.95;4.80;;;;;;;39.15;15.85;98255.53;10009564;29;20100;-82
2022/04/27 06:08:29;;;;;;;8.63;4.80;;;;;;;40.12;13.23;98258.84;9994573;29;20379;-82
2022/04/27 06:13:55;;;;;;;7.93;4.53;;;;;;;40.71;11.64;98265.72;9983231;29;20069;-83
2022/04/27 06:19:33;;;;;;;4.95;4.28;;;;;;;41.89;10.20;98274.75;10006714;29;20042;-83
2022/04/27 06:24:57;;;;;;;4.90;4.22;;;;;;;42.15;9.50;98272.69;9994264;29;20397;-83
2022/04/27 06:30:47;;;;;;;8.75;4.75;;;;;;;42.89;9.09;98271.72;10013063;29;20077;-84
2022/04/27 06:36:08;;;;;;;6.18;5.28;;;;;;;42.79;8.12;98282.50;9981279;29;20045;-84
2022/04/27 06:41:29;;;;;;;4.82;3.90;;;;;;;43.43;8.03;98282.66;10006486;29;20041;-84
2022/04/27 06:47:11;;;;;;;4.97;4.35;;;;;;;44.56;7.39;98279.72;10019166;29;20042;-83
2022/04/27 06:52:52;;;;;;;5.97;3.88;;;;;;;45.30;7.07;98288.31;10019087;29;20405;-84
2022/04/27 06:58:35;;;;;;;4.53;3.85;;;;;;;46.41;6.71;98297.78;10008950;29;20054;-84
2022/04/27 07:04:11;;;;;;;6.05;3.83;;;;;;;46.72;5.40;98304.53;9995442;29;20080;-83
2022/04/27 07:09:33;;;;;;;4.32;3.92;;;;;;;46.02;5.50;98302.66;10009861;29;20432;-83
2022/04/27 07:14:56;;;;;;;5.13;3.67;;;;;;;46.67;5.68;98306.34;10000771;29;20053;-83
2022/04/27 07:20:17;;;;;;;3.58;2.88;;;;;;;48.27;5.65;98308.66;10013194;29;20542;-84
2022/04/27 07:25:39;;;;;;;4.95;3.50;;;;;;;49.30;4.76;98316.78;10025528;29;20049;-83
2022/04/27 07:30:59;;;;;;;4.85;3.17;;;;;;;49.08;4.08;98322.28;10025657;29;20437;-84
2022/04/27 07:36:25;;;;;;;4.35;2.60;;;;;;;48.51;3.90;98320.84;9987407;29;20142;-83
2022/04/27 07:41:51;;;;;;;4.47;2.90;;;;;;;48.87;3.97;98332.06;10012240;29;20512;-84
2022/04/27 07:47:15;;;;;;;3.08;2.75;;;;;;;49.57;4.21;98327.19;10012289;29;20083;-83
2022/04/27 07:52:36;;;;;;;4.20;2.60;;;;;;;49.27;3.66;98330.38;10012072;29;20474;-85
2022/04/27 07:57:58;;;;;;;2.75;2.38;;;;;;;50.53;3.27;98328.03;9999308;29;20042;-84
2022/04/27 08:03:20;;;;;;;3.63;2.60;;;;;;;50.92;3.17;98334.28;9998902;29;20050;-84
2022/04/27 08:08:41;;;;;;;4.45;2.72;;;;;;;50.76;2.88;98338.69;9998905;29;20060;-85
2022/04/27 08:14:02;;;;;;;3.90;1.83;;;;;;;50.24;2.70;98342.34;9998493;29;20052;-84
2022/04/27 08:19:23;;;;;;;2.47;1.70;;;;;;;47.85;3.55;98351.00;9997405;29;20110;-84
2022/04/27 08:24:46;;;;;;;5.18;2.10;;;;;;;47.20;3.62;98347.63;10010657;29;20468;-85
2022/04/27 08:30:09;;;;;;;5.25;2.17;;;;;;;46.04;3.97;98343.84;9986110;29;20078;-85
2022/04/27 08:35:31;;;;;;;3.53;1.92;;;;;;;44.91;4.27;98346.69;10010345;29;20050;-83
2022/04/27 08:40:52;;;;;;;3.03;2.25;;;;;;;42.05;5.43;98349.41;10010183;29;20375;-83
2022/04/27 08:46:16;;;;;;;7.05;1.67;;;;;;;43.55;4.69;98346.63;9997694;29;20061;-83
2022/04/27 08:51:39;;;;;;;2.15;1.73;;;;;;;45.43;4.41;98347.84;9997697;29;20050;-81
2022/04/27 08:57:04;;;;;;;2.92;1.60;;;;;;;43.61;4.61;98360.94;10009587;29;20053;-83
2022/04/27 09:02:26;;;;;;;2.92;1.80;;;;;;;45.74;4.27;98351.75;10009600;29;20478;-84
2022/04/27 09:07:51;;;;;;;4.18;1.60;;;;;;;48.11;3.58;98357.91;10009272;29;20045;-84
2022/04/27 09:13:12;;;;;;;4.37;1.30;;;;;;;49.51;3.00;98355.09;10009187;29;20050;-83
2022/04/27 09:24:55;;;;;;;3.65;1.30;;;;;;;50.71;2.01;98346.53;10021451;29;20054;-82
2022/04/27 09:30:17;;;;;;;1.70;1.38;;;;;;;50.31;1.90;98357.38;10020843;29;20066;-82
2022/04/27 09:35:46;;;;;;;2.03;1.35;;;;;;;48.58;2.12;98353.63;9984145;29;20114;-84
2022/04/27 09:41:07;;;;;;;;;;;;;;;48.86;1.58;98347.75;9995455;29;20106;-83
2022/04/27 09:46:29;;;;;;;3.25;1.40;;;;;;;48.50;2.05;98348.34;10006183;29;19924;-84
2022/04/27 09:52:03;;;;;;;3.38;1.40;;;;;;;48.62;1.90;98354.00;9975668;29;20095;-83
2022/04/27 09:57:28;;;;;;;3.47;1.20;;;;;;;48.96;1.59;98343.97;9961904;29;20404;-83
2022/04/27 10:03:20;;;;;;;1.27;1.13;;;;;;;50.61;1.19;98342.88;9981188;29;20058;-83
2022/04/27 10:09:05;;;;;;;1.75;1.20;;;;;;;51.38;1.03;98340.63;9976149;29;20395;-82
2022/04/27 10:14:52;;;;;;;1.90;1.48;;;;;;;51.21;1.03;98345.06;9959854;29;20056;-83
2022/04/27 10:20:31;;;;;;;2.47;0.60;;;;;;;43.64;2.33;98358.63;9961908;29;20042;-84
2022/04/27 10:26:28;;;;;;;4.57;0.90;;;;;;;36.88;5.77;98363.66;9979381;29;20516;-83
2022/04/27 10:31:49;;;;;;;1.35;0.70;;;;;;;39.05;5.45;98346.38;9974469;29;20058;-83
2022/04/27 10:37:11;;;;;;;1.45;0.70;;;;;;;41.60;3.99;98348.69;9977853;29;20046;-83
2022/04/27 10:42:32;;;;;;;1.55;0.90;;;;;;;34.69;5.80;98352.78;9970112;29;20053;-82
2022/04/27 10:47:53;;;;;;;1.27;0.85;;;;;;;30.31;8.16;98351.38;9969686;29;20410;-83
2022/04/27 10:53:14;;;;;;;3.28;0.70;;;;;;;28.54;9.43;98353.78;9979726;29;20053;-82
2022/04/27 10:58:46;;;;;;;2.25;1.27;;;;;;;27.84;11.71;98357.56;9995202;29;20042;-80
2022/04/27 11:04:08;;;;;;;2.33;1.20;;;;;;;28.08;11.94;98354.16;9958418;29;20058;-83
2022/04/27 11:09:44;;;;;;;5.93;1.70;;;;;;;26.99;11.97;98360.94;9973919;29;20050;-80
2022/04/27 11:15:06;;;;;;;2.65;1.67;;;;;;;26.52;12.50;98365.31;9958081;29;20046;-80
2022/04/27 11:20:34;;;;;;;2.90;1.63;;;;;;;25.70;13.83;98366.16;10012552;29;20050;-80
2022/04/27 11:25:55;;;;;;;3.15;1.80;;;;;;;24.68;13.56;98369.09;10025558;29;20481;-80
2022/04/27 11:31:16;;;;;;;4.30;1.90;;;;;;;24.83;14.57;98373.72;9977610;29;20111;-80
2022/04/27 11:36:37;;;;;;;4.82;2.17;;;;;;;24.76;14.72;98366.44;9969393;29;20452;-80
2022/04/27 11:42:01;;;;;;;2.40;2.00;;;;;;;24.36;14.83;98369.84;9991226;29;20069;-80
2022/04/27 11:47:30;;;;;;;4.10;1.85;;;;;;;23.37;15.41;98376.59;9974768;29;20046;-80
2022/04/27 11:53:05;;;;;;;2.92;1.92;;;;;;;22.55;17.72;98390.56;9989933;29;20053;-80
2022/04/27 11:58:27;;;;;;;4.97;1.93;;;;;;;22.19;17.49;98390.88;9974836;29;20054;-80
2022/04/27 12:03:49;;;;;;;3.70;2.30;;;;;;;21.98;17.65;98392.31;9976758;29;20399;-80
2022/04/27 12:09:17;;;;;;;4.38;2.28;;;;;;;21.72;18.66;98385.78;9967619;29;20042;-80
2022/04/27 12:14:38;;;;;;;7.82;2.45;;;;;;;21.66;19.41;98394.06;9975860;29;20050;-80
2022/04/27 12:20:00;;;;;;;3.10;2.10;;;;;;;21.74;19.39;98390.78;9986018;29;20103;-80
2022/04/27 12:25:21;;;;;;;2.70;2.10;;;;;;;21.46;19.21;98384.84;9973501;29;20406;-80
2022/04/27 12:30:48;;;;;;;3.50;1.98;;;;;;;21.22;19.61;98393.19;9999190;29;20086;-80
2022/04/27 12:41:50;;;;;;;2.53;1.80;;;;;;;21.42;19.86;98393.94;10010495;29;20451;-81
2022/04/27 12:47:14;;;;;;;3.45;2.05;;;;;;;21.20;20.36;98398.81;9962436;29;20075;-82
2022/04/27 12:52:36;;;;;;;3.35;2.05;;;;;;;21.07;20.92;98392.69;9964779;29;20046;-82
2022/04/27 12:57:59;;;;;;;5.22;1.85;;;;;;;21.59;20.50;98392.41;9976786;29;20045;-80
2022/04/27 13:03:23;;;;;;;3.42;1.88;;;;;;;22.23;20.04;98390.28;9984437;29;20054;-81
2022/04/27 13:08:44;;;;;;;;;;;;;;;22.76;19.42;98386.22;9986292;29;20045;-80
2022/04/27 13:14:05;;;;;;;2.13;1.40;;;;;;;23.31;18.71;98379.25;9988746;29;19930;-80
2022/04/27 13:19:25;;;;;;;2.40;1.42;;;;;;;23.30;18.60;98372.84;9965062;29;20046;-80
2022/04/27 13:24:46;;;;;;;2.45;1.50;;;;;;;23.86;18.15;98381.47;9973879;29;20054;-80
2022/04/27 13:30:14;;;;;;;2.45;1.85;;;;;;;23.67;17.74;98371.72;9996713;29;20514;-80
2022/04/27 13:35:35;;;;;;;3.60;2.00;;;;;;;22.91;18.52;98385.28;9985980;29;20077;-80
2022/04/27 13:40:57;;;;;;;6.10;1.90;;;;;;;22.64;18.35;98377.31;9996281;29;20523;-80
2022/04/27 13:46:18;;;;;;;3.00;1.65;;;;;;;22.07;18.71;98378.41;9978137;29;20054;-80
2022/04/27 13:51:39;;;;;;;3.92;1.85;;;;;;;21.56;18.95;98388.06;9955822;29;20050;-84
2022/04/27 13:57:00;;;;;;;3.30;1.27;;;;;;;21.23;19.18;98381.22;9955746;29;20502;-82
2022/04/27 14:02:20;;;;;;;2.42;1.42;;;;;;;20.69;19.65;98368.56;9942804;29;20050;-82
2022/04/27 14:07:42;;;;;;;2.88;1.48;;;;;;;20.41;20.35;98379.53;9955263;29;20406;-85
2022/04/27 14:13:16;;;;;;;3.20;1.80;;;;;;;20.29;20.70;98393.97;9967551;29;20069;-87
2022/04/27 14:18:37;;;;;;;2.83;1.70;;;;;;;20.13;20.82;98388.38;9958231;29;20070;-85
2022/04/27 14:23:57;;;;;;;3.58;1.98;;;;;;;20.20;21.73;98398.56;9942207;29;20523;-84
2022/04/27 14:29:18;;;;;;;7.05;2.58;;;;;;;20.16;21.78;98392.72;9944598;29;20418;-84
2022/04/27 14:34:39;;;;;;;7.03;3.10;;;;;;;20.05;22.11;98390.88;9951302;29;20050;-82
2022/04/27 14:40:00;;;;;;;3.75;2.30;;;;;;;20.14;22.19;98406.09;9981533;29;20463;-84
2022/04/27 14:45:20;;;;;;;4.95;2.13;;;;;;;20.43;22.05;98391.69;9943817;29;20451;-86
2022/04/27 14:50:41;;;;;;;2.90;2.03;;;;;;;20.74;21.84;98387.91;9943737;29;20387;-86
2022/04/27 14:56:02;;;;;;;2.92;1.77;;;;;;;21.13;21.93;98392.94;9955944;29;20111;-83
2022/04/27 15:01:23;;;;;;;4.85;2.20;;;;;;;21.26;21.29;98394.13;9947820;29;20047;-85
2022/04/27 15:06:43;;;;;;;3.03;2.00;;;;;;;21.15;21.65;98387.31;9955447;29;20042;-85
2022/04/27 15:12:05;;;;;;;4.32;1.55;;;;;;;20.81;21.46;98403.78;9978984;29;20446;-78
2022/04/27 15:17:26;;;;;;;6.15;2.00;;;;;;;20.52;21.63;98395.59;9985382;29;20443;-77
2022/04/27 15:22:52;;;;;;;2.78;1.85;;;;;;;20.16;22.81;98401.25;9973809;29;20085;-78
2022/04/27 15:28:12;;;;;;;3.97;2.05;;;;;;;20.17;22.41;98391.38;10000500;29;20544;-77
2022/04/27 15:33:33;;;;;;;3.88;2.17;;;;;;;20.40;22.43;98400.75;10003170;29;20395;-79
2022/04/27 15:38:54;;;;;;;5.47;2.20;;;;;;;20.44;22.39;98406.59;10011914;29;20405;-80
2022/04/27 15:44:14;;;;;;;5.47;2.28;;;;;;;20.43;22.49;98408.72;10012261;29;20537;-79
2022/04/27 15:49:36;;;;;;;4.10;2.30;;;;;;;19.95;22.88;98404.63;9986499;29;20045;-80
2022/04/27 15:54:58;;;;;;;3.63;2.20;;;;;;;19.93;23.09;98401.72;9986872;29;20046;-80
2022/04/27 16:00:20;;;;;;;3.88;2.13;;;;;;;19.65;22.89;98407.66;9986670;29;20057;-82
2022/04/27 16:05:41;;;;;;;3.65;2.08;;;;;;;19.24;23.11;98415.75;9985970;29;20109;-81
2022/04/27 16:11:08;;;;;;;3.65;1.90;;;;;;;18.66;24.17;98423.03;9987475;29;20045;-82
2022/04/27 16:16:28;;;;;;;4.63;2.55;;;;;;;18.23;26.21;98437.91;9998604;29;20046;-82
2022/04/27 16:27:29;;;;;;;3.05;2.10;;;;;;;17.80;26.53;98437.94;10012965;29;20085;-80
2022/04/27 16:32:49;;;;;;;4.57;2.20;;;;;;;17.74;26.66;98441.16;9997965;29;20496;-81
2022/04/27 16:38:10;;;;;;;5.05;2.42;;;;;;;17.79;26.67;98442.84;9973918;29;20050;-81
2022/04/27 16:43:31;;;;;;;3.67;1.98;;;;;;;17.71;27.04;98456.56;9972863;29;20061;-81
2022/04/27 16:48:53;;;;;;;3.22;2.10;;;;;;;17.60;27.75;98463.75;9934593;29;20100;-82
2022/04/27 16:54:13;;;;;;;4.38;1.80;;;;;;;17.57;27.72;98465.00;9972854;29;20042;-82
2022/04/27 16:59:34;;;;;;;5.25;2.58;;;;;;;17.55;27.97;98464.16;10009794;29;20379;-82
2022/04/27 17:04:59;;;;;;;3.28;2.10;;;;;;;17.34;28.31;98474.38;9960411;29;20047;-80
2022/04/27 17:10:21;;;;;;;4.32;1.88;;;;;;;17.11;28.72;98480.94;9958557;29;20053;-82
2022/04/27 17:15:43;;;;;;;3.03;2.30;;;;;;;17.06;29.43;98478.53;9971465;29;20053;-82
2022/04/27 17:21:05;;;;;;;6.75;2.22;;;;;;;16.84;29.53;98480.88;9958790;29;20283;-82
2022/04/27 17:32:05;;;;;;;4.25;2.25;;;;;;;16.65;30.12;98498.09;9962770;29;20138;-82
2022/04/27 17:37:27;;;;;;;6.20;2.50;;;;;;;16.63;30.13;98504.38;9943343;29;20421;-82
2022/04/27 17:42:49;;;;;;;3.55;2.13;;;;;;;16.49;30.81;98506.38;9957810;29;20394;-81
2022/04/27 17:48:30;;;;;;;3.55;2.47;;;;;;;16.37;30.59;98516.97;9950231;29;20046;-88
2022/04/27 17:53:56;;;;;;;4.35;2.40;;;;;;;16.32;30.89;98521.66;9958152;29;20426;-83
2022/04/27 17:59:17;;;;;;;6.40;2.58;;;;;;;16.23;31.16;98526.06;9957384;29;20047;-83
2022/04/27 18:04:38;;;;;;;3.53;2.22;;;;;;;16.12;31.40;98521.22;9957177;29;20081;-82
2022/04/27 18:09:59;;;;;;;4.15;2.70;;;;;;;16.11;31.46;98535.88;9957076;29;20061;-84
2022/04/27 18:15:20;;;;;;;5.97;3.10;;;;;;;16.11;31.96;98547.88;9944497;29;20042;-81
2022/04/27 18:20:42;;;;;;;5.70;3.13;;;;;;;16.01;32.05;98542.38;9957000;29;20061;-84
2022/04/27 18:26:02;;;;;;;5.18;3.20;;;;;;;15.96;32.14;98548.41;9969255;29;20490;-83
2022/04/27 18:31:24;;;;;;;8.40;4.85;;;;;;;15.86;32.35;98557.00;9969097;29;20062;-82
2022/04/27 18:36:45;;;;;;;4.35;3.08;;;;;;;15.79;32.48;98565.69;9969170;29;20054;-80
2022/04/27 18:42:06;;;;;;;5.28;3.50;;;;;;;15.74;32.91;98568.25;9968752;29;20513;-80
2022/04/27 18:53:09;;;;;;;5.80;3.30;;;;;;;15.59;33.20;98582.78;9960851;29;20126;-83
2022/04/27 18:58:31;;;;;;;5.53;3.25;;;;;;;15.55;33.30;98584.63;9943784;29;20051;-80
2022/04/27 19:03:52;;;;;;;6.32;3.53;;;;;;;15.47;33.65;98584.84;9956947;29;20891;-81
2022/04/27 19:09:13;;;;;;;3.97;2.95;;;;;;;15.40;33.58;98594.97;9975592;29;20482;-80
2022/04/27 19:14:35;;;;;;;3.88;2.88;;;;;;;15.40;34.13;98588.63;9975408;29;20530;-81
2022/04/27 19:19:57;;;;;;;4.20;3.20;;;;;;;15.39;33.98;98596.34;9950311;29;20057;-80
2022/04/27 19:25:18;;;;;;;5.07;3.58;;;;;;;15.40;34.05;98594.25;9962392;29;20402;-80
2022/04/27 19:30:43;;;;;;;4.90;3.22;;;;;;;15.33;34.18;98593.13;9962961;29;20133;-80
2022/04/27 19:36:06;;;;;;;5.95;3.22;;;;;;;15.25;34.45;98597.50;9966638;29;20054;-79
2022/04/27 19:41:27;;;;;;;6.47;4.13;;;;;;;15.21;34.23;98611.31;9975436;29;20055;-78
2022/04/27 19:46:49;;;;;;;5.30;4.25;;;;;;;15.17;34.63;98604.13;9962665;29;20771;-79
2022/04/27 19:52:52;;;;;;;7.15;4.38;;;;;;;15.11;34.63;98611.44;9976559;29;20061;-78
2022/04/27 19:58:04;;;;;;;7.13;4.60;;;;;;;15.09;34.69;98619.75;9975068;29;20103;-78
2022/04/27 20:03:26;;;;;;;6.80;4.20;;;;;;;15.03;34.78;98611.63;9968325;29;20058;-79
2022/04/27 20:08:54;;;;;;;6.25;4.30;;;;;;;14.94;35.28;98615.28;9979885;29;20046;-78
2022/04/27 20:14:15;;;;;;;5.38;3.88;;;;;;;14.88;35.46;98610.00;9972786;29;20102;-81
2022/04/27 20:19:50;;;;;;;7.95;4.55;;;;;;;14.79;35.45;98621.31;10013017;29;20513;-82
2022/04/27 20:25:11;;;;;;;6.75;4.20;;;;;;;14.79;35.64;98604.47;10020311;29;20141;-80
2022/04/27 20:30:35;;;;;;;6.47;4.93;;;;;;;14.74;36.01;98614.69;10004189;29;20057;-80
2022/04/27 20:35:57;;;;;;;7.05;5.28;;;;;;;14.73;36.26;98626.53;9998710;29;20069;-80
2022/04/27 20:41:20;;;;;;;6.43;5.00;;;;;;;14.68;36.26;98617.13;10036001;29;20053;-79
2022/04/27 20:46:43;;;;;;;11.73;4.20;;;;;;;14.62;36.73;98621.59;10024005;29;20505;-81
2022/04/27 20:52:20;;;;;;;7.15;4.20;;;;;;;14.57;36.75;98624.16;10039779;29;20512;-81
2022/04/27 20:57:41;;;;;;;7.70;5.13;;;;;;;14.49;37.10;98637.66;10017416;29;20057;-81
2022/04/27 21:03:10;;;;;;;7.95;4.90;;;;;;;14.42;37.11;98632.94;10029453;29;20053;-80
2022/04/27 21:08:33;;;;;;;7.57;5.28;;;;;;;14.42;37.38;98635.03;10019990;29;20110;-81
2022/04/27 21:13:56;;;;;;;9.73;5.00;;;;;;;14.36;37.09;98634.59;10050342;29;20057;-81
2022/04/27 21:19:18;;;;;;;8.10;4.95;;;;;;;14.28;37.64;98637.59;10036977;29;20607;-81
2022/04/27 21:24:39;;;;;;;7.97;5.05;;;;;;;14.23;37.88;98644.28;10022602;29;20046;-81
2022/04/27 21:30:07;;;;;;;9.93;4.70;;;;;;;14.19;37.88;98649.66;10022956;29;20103;-81
2022/04/27 21:35:28;;;;;;;8.57;5.00;;;;;;;14.14;38.40;98659.13;10023585;29;20060;-81
2022/04/27 21:40:50;;;;;;;6.82;4.40;;;;;;;14.12;38.16;98656.19;10034081;29;20057;-80
2022/04/27 21:46:20;;;;;;;6.63;4.45;;;;;;;14.04;38.61;98648.66;10020127;29;20514;-81
2022/04/27 21:51:42;;;;;;;6.93;4.68;;;;;;;13.97;38.61;98658.00;10005833;29;20046;-81
2022/04/27 21:57:03;;;;;;;8.60;4.53;;;;;;;13.92;38.79;98659.06;10030663;29;20061;-81
2022/04/27 22:02:24;;;;;;;9.50;5.10;;;;;;;13.94;39.01;98656.41;10030618;29;20076;-81
2022/04/27 22:07:45;;;;;;;7.13;5.03;;;;;;;13.88;39.05;98667.19;10030913;29;20053;-81
2022/04/27 22:13:07;;;;;;;9.02;5.15;;;;;;;13.85;39.32;98668.41;10030308;29;20050;-80
2022/04/27 22:18:30;;;;;;;9.30;5.13;;;;;;;13.81;39.37;98664.59;10040266;29;20053;-80
2022/04/27 22:23:55;;;;;;;11.20;5.68;;;;;;;13.76;39.42;98652.34;10016048;29;20046;-81
2022/04/27 22:29:16;;;;;;;7.78;4.82;;;;;;;13.75;39.60;98659.28;10010532;29;20065;-81
2022/04/27 22:34:39;;;;;;;7.00;4.90;;;;;;;13.74;39.36;98660.63;9992630;29;20049;-81
2022/04/27 22:40:01;;;;;;;7.35;4.38;;;;;;;13.75;39.57;98662.09;9983264;29;20050;-81
2022/04/27 22:45:21;;;;;;;8.02;5.35;;;;;;;13.73;39.52;98664.75;10014428;29;20136;-81
2022/04/27 22:50:46;;;;;;;6.70;3.97;;;;;;;13.73;39.64;98670.38;10011855;29;20401;-80
2022/04/27 22:56:09;;;;;;;8.70;4.75;;;;;;;13.66;39.78;98660.03;10029076;29;20050;-81
2022/04/27 23:01:32;;;;;;;9.55;5.10;;;;;;;13.68;39.30;98665.78;10017090;29;20054;-81
2022/04/27 23:06:53;;;;;;;7.13;4.70;;;;;;;13.62;39.67;98663.31;10040938;29;20057;-80
2022/04/27 23:12:14;;;;;;;6.80;4.82;;;;;;;13.58;39.99;98660.22;10015594;29;20046;-81
2022/04/27 23:17:39;;;;;;;6.70;4.75;;;;;;;13.56;40.36;98664.94;10027997;29;20498;-81
2022/04/27 23:23:00;;;;;;;8.35;5.13;;;;;;;13.53;40.01;98654.91;10002963;29;20079;-81
2022/04/27 23:28:20;;;;;;;10.05;5.78;;;;;;;13.48;40.35;98656.69;10039216;29;20049;-81
2022/04/27 23:33:47;;;;;;;7.80;4.85;;;;;;;13.45;40.24;98653.00;10015072;29;20054;-81
2022/04/27 23:39:07;;;;;;;7.85;5.40;;;;;;;13.43;40.10;98647.25;10027314;29;20065;-80
2022/04/27 23:44:30;;;;;;;9.05;5.22;;;;;;;13.37;40.30;98651.69;10015060;29;20050;-81
2022/04/27 23:49:53;;;;;;;8.20;4.63;;;;;;;13.27;40.44;98648.19;10013594;29;20050;-82
2022/04/27 23:55:14;;;;;;;6.93;4.68;;;;;;;13.14;40.46;98649.34;10039387;29;20053;-82
